CYQD

The Pas Airport

The Pas, Manitoba, Canada
METAR CYQD 242000Z 23008KT 220V280 15SM BKN035 OVC220 M07/M14 A2951 RMK SC6CS2 SLP014
Observed Flight Rules
Feb-24 @ 20:00 UTC (15 minutes ago) Visual Flight Rules
Wind Visibility Clouds
230° at 8 knots 15 miles
  • Broken at 3,500' AGL
  • Overcast at 22,000' AGL
Temperatures Readings
Current -7°C / 19°F
Dewpoint -14°C / 7°F
Humidity 58%
Altimeter 29.51" Hg
Pressure 1001.4 hPa
Elevation 271
METAR CYQD 242000Z 23008KT 220V280 15SM BKN035 OVC220 M07/M14 A2951 RMK SC6CS2 SLP014
Observed Flight Rules
Feb-24 @ 20:00 UTC
(15 minutes ago)
VFR
Wind Visibility
230° at 8 knots 15 miles
Clouds
  • Broken at 3,500' AGL
  • Overcast at 22,000' AGL
Temperature Dewpoint
-7°C / 19°F -14°C / 7°F
Humidity Altimeter Pressure
58% 29.51" Hg 1001.4 hPa